KWRB/WRB METAR and TAF weather

Enter ICAO airport designator
Station Type Date Time Source
KWRB METAR 2024/05/28 20:55 UTC NOAA

KWRB 282055Z 33010KT 10SM FEW070 32/14 A2996 RMK AO2A SLP145 T03180144 57007 $


Station Type Date Time Source
KWRB Decoded METAR 2024/05/28 20:55 UTC NOAA

Warner Robins Air Force Base, GA, United States (KWRB) 32-38N 083-36W
May 28, 2024 - 04:55 PM EDT / 2024.05.28 2055 UTC
Wind: from the NNW (330 degrees) at 12 MPH (10 KT):0
Visibility: 10 mile(s):0
Sky conditions: mostly clear
Temperature: 89.2 F (31.8 C)
Dew Point: 57.9 F (14.4 C)
Relative Humidity: 34%
Pressure (altimeter): 29.96 in. Hg (1014 hPa)
Pressure tendency: 0.02 inches (0.7 hPa) lower than three hours ago
ob: KWRB 282055Z 33010KT 10SM FEW070 32/14 A2996 RMK AO2A SLP145 T03180144 57007
cycle: 21

Station Type Date Time Source
KWRB TAF 2024/05/28 16:16 UTC NOAA